createdAt,value
2023-05-19T00:03:45.994Z,9.52
2023-05-19T00:07:42.635Z,9.58
2023-05-19T00:11:39.511Z,9.52
2023-05-19T00:15:36.271Z,9.45
2023-05-19T00:19:33.386Z,9.37
2023-05-19T00:23:30.002Z,9.37
2023-05-19T00:27:26.623Z,9.30
2023-05-19T00:31:23.277Z,9.47
2023-05-19T00:35:19.957Z,9.44
2023-05-19T00:39:16.616Z,9.37
2023-05-19T00:43:13.237Z,9.43
2023-05-19T00:47:10.224Z,9.56
2023-05-19T00:51:07.411Z,9.43
2023-05-19T00:55:04.064Z,9.54
2023-05-19T00:59:00.653Z,9.44
2023-05-19T01:02:57.348Z,9.40
2023-05-19T01:06:56.869Z,9.43
2023-05-19T01:10:54.170Z,9.33
2023-05-19T01:14:50.834Z,9.61
2023-05-19T01:18:56.555Z,9.64
2023-05-19T01:22:43.453Z,9.76
2023-05-19T01:26:41.763Z,9.63
2023-05-19T01:30:37.094Z,9.84
2023-05-19T01:34:34.059Z,9.82
2023-05-19T01:38:36.130Z,9.78
2023-05-19T01:42:37.309Z,9.84
2023-05-19T01:46:34.981Z,9.84
2023-05-19T01:50:33.601Z,9.82
2023-05-19T01:54:30.577Z,9.93
2023-05-19T01:58:11.624Z,9.73
2023-05-19T02:02:11.213Z,10.00
2023-05-19T02:06:35.066Z,9.98
2023-05-19T02:10:43.959Z,10.07
2023-05-19T02:14:40.642Z,10.12
2023-05-19T02:18:37.405Z,10.07
2023-05-19T02:22:49.217Z,10.05
2023-05-19T02:26:45.827Z,9.94
2023-05-19T02:30:42.471Z,9.86
2023-05-19T02:34:39.130Z,9.91
2023-05-19T02:38:36.331Z,9.99
2023-05-19T02:42:32.918Z,9.87
2023-05-19T02:46:29.574Z,9.87
2023-05-19T02:50:26.374Z,9.80
2023-05-19T02:54:22.983Z,9.94
2023-05-19T02:58:20.536Z,9.88
2023-05-19T03:02:17.181Z,9.94
2023-05-19T03:06:14.206Z,9.90
2023-05-19T03:10:10.936Z,9.92
2023-05-19T03:14:09.532Z,9.86
2023-05-19T03:18:06.822Z,9.89
2023-05-19T03:22:03.486Z,9.80
2023-05-19T03:26:01.313Z,9.83
2023-05-19T03:29:58.206Z,9.77
2023-05-19T03:33:54.938Z,10.03
2023-05-19T03:37:52.058Z,9.92
2023-05-19T03:41:49.877Z,10.15
2023-05-19T03:45:46.750Z,10.15
2023-05-19T03:50:02.409Z,10.42
2023-05-19T03:54:34.599Z,10.55
2023-05-19T03:58:31.269Z,10.53
2023-05-19T04:02:28.286Z,10.55
2023-05-19T04:06:25.051Z,10.96
2023-05-19T04:10:23.477Z,10.95
2023-05-19T04:14:20.348Z,10.81
2023-05-19T04:18:16.957Z,11.59
2023-05-19T04:22:13.605Z,11.02
2023-05-19T04:26:12.237Z,11.34
2023-05-19T04:30:09.070Z,11.20
2023-05-19T04:34:06.056Z,11.36
2023-05-19T04:38:02.871Z,11.55
2023-05-19T04:42:02.686Z,11.38
2023-05-19T04:46:02.099Z,11.40
2023-05-19T04:50:00.866Z,11.18
2023-05-19T04:53:57.629Z,11.69
2023-05-19T04:57:54.347Z,12.02
2023-05-19T05:01:51.761Z,11.58
2023-05-19T05:05:48.894Z,12.06
2023-05-19T05:09:45.625Z,12.41
2023-05-19T05:13:42.390Z,12.45
2023-05-19T05:16:59.787Z,12.35
2023-05-19T05:20:04.588Z,12.36
2023-05-19T05:23:06.875Z,12.45
2023-05-19T05:26:16.257Z,12.46
2023-05-19T05:29:18.350Z,12.49
2023-05-19T05:32:20.509Z,12.25
2023-05-19T05:35:24.343Z,12.57
2023-05-19T05:38:26.643Z,12.47
2023-05-19T05:41:35.007Z,12.80
2023-05-19T05:44:41.001Z,12.67
2023-05-19T05:47:43.337Z,12.47
2023-05-19T05:50:45.908Z,12.89
2023-05-19T05:53:54.104Z,12.87
2023-05-19T05:56:59.682Z,12.87
2023-05-19T06:00:01.664Z,13.06
2023-05-19T06:03:06.064Z,13.07
2023-05-19T06:06:08.464Z,12.96
2023-05-19T06:09:10.453Z,13.59
2023-05-19T06:12:12.566Z,13.80
2023-05-19T06:15:21.965Z,13.68
2023-05-19T06:18:52.301Z,13.62
2023-05-19T06:21:54.398Z,14.43
2023-05-19T06:24:56.578Z,14.32
2023-05-19T06:27:58.660Z,14.43
2023-05-19T06:31:01.155Z,14.38
2023-05-19T06:34:24.402Z,13.99
2023-05-19T06:37:26.453Z,14.37
2023-05-19T06:40:28.522Z,14.16
2023-05-19T06:43:30.809Z,14.55
2023-05-19T06:46:57.704Z,14.71
2023-05-19T06:50:19.629Z,14.25
2023-05-19T06:53:24.163Z,14.72
2023-05-19T06:56:27.554Z,14.83
2023-05-19T06:59:29.510Z,15.33
2023-05-19T07:02:31.712Z,15.38
2023-05-19T07:05:33.917Z,15.60
2023-05-19T07:08:37.337Z,15.29
2023-05-19T07:11:41.305Z,15.51
2023-05-19T07:14:45.328Z,15.84
2023-05-19T07:17:48.363Z,15.35
2023-05-19T07:20:52.650Z,15.92
2023-05-19T07:23:55.976Z,16.08
2023-05-19T07:26:58.325Z,16.84
2023-05-19T07:30:00.255Z,16.14
2023-05-19T07:33:02.341Z,16.51
2023-05-19T07:36:04.856Z,16.53
2023-05-19T07:39:06.853Z,16.90
2023-05-19T07:42:08.957Z,16.89
2023-05-19T07:45:11.516Z,16.90
2023-05-19T07:48:13.824Z,16.63
2023-05-19T07:51:16.245Z,17.25
2023-05-19T07:54:18.484Z,17.29
2023-05-19T07:57:20.513Z,17.33
2023-05-19T08:00:22.674Z,16.93
2023-05-19T08:03:25.339Z,17.34
2023-05-19T08:06:28.330Z,17.82
2023-05-19T08:09:30.379Z,17.74
2023-05-19T08:12:32.537Z,17.65
2023-05-19T08:15:34.928Z,17.82
2023-05-19T08:18:37.143Z,17.80
2023-05-19T08:21:39.096Z,17.82
2023-05-19T08:24:43.277Z,18.15
2023-05-19T08:27:45.733Z,18.50
2023-05-19T08:30:47.728Z,18.33
2023-05-19T08:33:49.676Z,18.93
2023-05-19T08:36:51.701Z,18.28
2023-05-19T08:39:53.585Z,18.17
2023-05-19T08:42:55.654Z,18.89
2023-05-19T08:46:00.179Z,18.97
2023-05-19T08:49:08.730Z,19.10
2023-05-19T08:52:27.588Z,18.99
2023-05-19T08:55:53.386Z,18.41
2023-05-19T08:58:59.767Z,19.20
2023-05-19T09:02:03.752Z,19.44
2023-05-19T09:05:07.389Z,19.43
2023-05-19T09:08:09.601Z,18.82
2023-05-19T09:11:12.267Z,18.83
2023-05-19T09:14:14.354Z,18.94
2023-05-19T09:17:16.503Z,19.45
2023-05-19T09:20:18.475Z,19.04
2023-05-19T09:23:21.025Z,19.48
2023-05-19T09:26:23.471Z,19.76
2023-05-19T09:29:25.977Z,19.01
2023-05-19T09:32:28.032Z,20.10
2023-05-19T09:35:30.048Z,20.53
2023-05-19T09:38:32.448Z,19.99
2023-05-19T09:41:34.493Z,20.15
2023-05-19T09:44:36.390Z,20.41
2023-05-19T09:47:40.407Z,20.30
2023-05-19T09:50:46.758Z,19.74
2023-05-19T09:53:49.265Z,19.70
2023-05-19T09:57:02.167Z,19.69
2023-05-19T10:00:17.857Z,20.06
2023-05-19T10:03:21.342Z,20.29
2023-05-19T10:06:23.841Z,20.08
2023-05-19T10:09:28.194Z,20.52
2023-05-19T10:12:31.977Z,20.30
2023-05-19T10:15:40.706Z,20.60
2023-05-19T10:18:46.263Z,20.56
2023-05-19T10:21:48.813Z,20.82
2023-05-19T10:24:50.906Z,20.54
2023-05-19T10:28:01.879Z,21.31
2023-05-19T10:31:08.926Z,21.55
2023-05-19T10:34:33.372Z,20.88
2023-05-19T10:37:52.030Z,20.51
2023-05-19T11:15:17.908Z,22.07
2023-05-19T11:18:20.719Z,22.12
2023-05-19T11:21:22.688Z,22.17
2023-05-19T11:24:36.625Z,21.41
2023-05-19T11:27:40.121Z,21.97
2023-05-19T11:30:43.786Z,22.35
2023-05-19T11:33:45.835Z,22.42
2023-05-19T11:36:48.793Z,22.38
2023-05-19T11:39:52.233Z,21.94
2023-05-19T11:42:54.277Z,21.93
2023-05-19T11:45:56.529Z,21.94
2023-05-19T11:48:58.613Z,22.05
2023-05-19T11:52:02.287Z,22.44
2023-05-19T11:55:04.311Z,22.25
2023-05-19T11:58:06.472Z,22.38
2023-05-19T12:01:10.282Z,22.53
2023-05-19T12:04:12.301Z,22.28
2023-05-19T12:07:17.740Z,22.89
2023-05-19T12:10:39.107Z,23.09
2023-05-19T12:13:41.226Z,23.00
2023-05-19T12:16:43.633Z,22.38
2023-05-19T12:19:47.747Z,23.10
2023-05-19T12:22:51.444Z,23.14
2023-05-19T12:25:53.499Z,23.11
2023-05-19T12:28:55.435Z,22.92
2023-05-19T12:31:57.465Z,23.26
2023-05-19T12:35:00.447Z,22.81
2023-05-19T12:38:06.680Z,23.12
2023-05-19T12:41:13.786Z,22.79
2023-05-19T12:44:16.363Z,23.40
2023-05-19T12:47:20.247Z,22.99
2023-05-19T12:50:22.236Z,23.14
2023-05-19T12:53:26.713Z,22.74
2023-05-19T12:56:28.960Z,23.12
2023-05-19T12:59:38.652Z,23.60
2023-05-19T13:03:07.791Z,23.59
2023-05-19T13:06:10.594Z,23.84
2023-05-19T13:09:12.412Z,23.96
2023-05-19T13:12:14.353Z,23.85
2023-05-19T13:15:16.296Z,23.83
2023-05-19T13:18:18.703Z,24.14
2023-05-19T13:21:20.736Z,24.15
2023-05-19T13:24:22.682Z,24.11
2023-05-19T13:27:25.091Z,24.02
2023-05-19T13:30:28.311Z,24.10
2023-05-19T13:33:30.167Z,24.25
2023-05-19T13:36:33.430Z,24.18
2023-05-19T13:39:36.247Z,24.24
2023-05-19T13:42:38.227Z,23.94
2023-05-19T13:45:42.252Z,23.89
2023-05-19T13:52:30.405Z,23.76
2023-05-19T13:55:33.102Z,23.34
2023-05-19T13:58:35.237Z,23.59
2023-05-19T14:01:37.205Z,23.43
2023-05-19T14:04:39.928Z,23.53
2023-05-19T14:07:42.564Z,23.84
2023-05-19T14:10:46.834Z,24.08
2023-05-19T14:13:52.857Z,24.30
2023-05-19T14:16:56.405Z,23.84
2023-05-19T14:19:58.312Z,23.88
2023-05-19T14:23:00.316Z,24.06
2023-05-19T14:26:02.309Z,24.00
2023-05-19T14:29:04.904Z,24.08
2023-05-19T14:32:07.706Z,24.01
2023-05-19T14:35:09.757Z,24.26
2023-05-19T14:38:13.177Z,24.04
2023-05-19T14:41:15.137Z,24.05
2023-05-19T14:44:17.052Z,24.34
2023-05-19T14:47:19.088Z,24.18
2023-05-19T14:50:21.159Z,24.27
2023-05-19T14:53:23.178Z,23.99
2023-05-19T14:56:25.241Z,24.22
2023-05-19T14:59:27.471Z,24.16
2023-05-19T15:02:29.970Z,23.67
2023-05-19T15:05:31.986Z,23.97
2023-05-19T15:08:34.000Z,24.38
2023-05-19T15:11:35.886Z,24.06
2023-05-19T15:14:38.295Z,24.19
2023-05-19T15:17:40.377Z,24.49
2023-05-19T15:20:43.975Z,23.97
2023-05-19T15:23:46.023Z,23.99
2023-05-19T15:26:48.014Z,24.32
2023-05-19T15:29:50.107Z,24.05
2023-05-19T15:32:52.061Z,23.83
2023-05-19T15:35:54.335Z,23.79
2023-05-19T15:38:56.335Z,24.05
2023-05-19T15:41:58.192Z,23.76
2023-05-19T15:45:00.119Z,24.02
2023-05-19T15:52:16.662Z,24.05
2023-05-19T15:55:18.787Z,24.19
2023-05-19T15:58:20.883Z,24.09
2023-05-19T16:01:22.931Z,24.17
2023-05-19T16:04:24.929Z,24.20
2023-05-19T16:07:27.343Z,23.86
2023-05-19T16:10:29.210Z,23.86
2023-05-19T16:13:33.561Z,23.53
2023-05-19T16:16:35.686Z,23.65
2023-05-19T16:19:38.350Z,23.69
2023-05-19T16:22:40.223Z,23.76
2023-05-19T16:25:42.334Z,23.96
2023-05-19T16:28:44.341Z,23.57
2023-05-19T16:31:46.283Z,23.12
2023-05-19T16:34:48.264Z,23.21
2023-05-19T16:37:50.175Z,23.04
2023-05-19T16:40:52.337Z,22.94
2023-05-19T16:43:54.298Z,22.69
2023-05-19T16:46:56.182Z,22.85
2023-05-19T16:49:58.111Z,22.72
2023-05-19T16:53:00.038Z,22.39
2023-05-19T16:56:02.128Z,22.36
2023-05-19T16:59:04.066Z,22.28
2023-05-19T17:02:07.446Z,22.13
2023-05-19T17:05:09.487Z,21.89
2023-05-19T17:08:12.753Z,21.79
2023-05-19T17:11:14.629Z,21.70
2023-05-19T17:14:16.626Z,21.56
2023-05-19T17:17:19.429Z,21.48
2023-05-19T17:20:21.547Z,21.47
2023-05-19T17:23:23.506Z,21.42
2023-05-19T17:26:26.527Z,21.34
2023-05-19T17:29:28.458Z,21.25
2023-05-19T17:32:35.773Z,21.20
2023-05-19T17:35:37.898Z,21.07
2023-05-19T17:38:40.515Z,21.01
2023-05-19T17:41:43.016Z,20.89
2023-05-19T17:44:44.923Z,20.87
2023-05-19T17:47:46.931Z,20.72
2023-05-19T17:50:49.491Z,20.67
2023-05-19T17:53:51.732Z,20.58
2023-05-19T17:56:57.908Z,20.57
2023-05-19T18:00:00.644Z,20.61
2023-05-19T18:03:04.639Z,20.42
2023-05-19T18:06:07.388Z,20.25
2023-05-19T18:09:11.034Z,20.10
2023-05-19T18:12:13.028Z,20.05
2023-05-19T18:15:14.971Z,19.96
2023-05-19T18:18:16.898Z,19.91
2023-05-19T18:21:18.998Z,19.77
2023-05-19T18:24:20.967Z,19.66
2023-05-19T18:27:22.977Z,19.62
2023-05-19T18:30:25.048Z,19.61
2023-05-19T18:33:28.532Z,19.52
2023-05-19T18:36:32.613Z,19.64
2023-05-19T18:39:34.544Z,19.69
2023-05-19T18:42:36.451Z,19.73
2023-05-19T18:45:38.498Z,19.70
2023-05-19T18:48:40.634Z,19.86
2023-05-19T18:51:42.607Z,19.81
2023-05-19T18:54:45.981Z,19.90
2023-05-19T18:57:47.909Z,20.03
2023-05-19T19:00:50.444Z,20.05
2023-05-19T19:03:52.411Z,19.87
2023-05-19T19:06:54.328Z,19.87
2023-05-19T19:09:56.271Z,19.87
2023-05-19T19:12:58.224Z,19.65
2023-05-19T19:16:00.130Z,19.75
2023-05-19T19:19:02.176Z,19.39
2023-05-19T19:22:04.399Z,19.42
2023-05-19T19:25:06.587Z,19.44
2023-05-19T19:28:08.516Z,19.24
2023-05-19T19:52:05.414Z,17.96
2023-05-19T19:55:07.974Z,18.01
2023-05-19T19:58:09.967Z,17.94
2023-05-19T20:01:11.933Z,17.63
2023-05-19T20:04:13.991Z,17.47
2023-05-19T20:07:19.608Z,17.33
2023-05-19T20:10:21.511Z,17.25
2023-05-19T20:13:23.431Z,16.87
2023-05-19T20:16:25.480Z,16.73
2023-05-19T20:19:30.134Z,16.46
2023-05-19T20:22:32.028Z,16.37
2023-05-19T20:25:35.059Z,16.33
2023-05-19T20:28:37.516Z,16.36
2023-05-19T20:31:39.568Z,16.28
2023-05-19T20:34:41.933Z,16.12
2023-05-19T20:37:43.950Z,16.31
2023-05-19T20:40:46.036Z,16.20
2023-05-19T20:43:48.219Z,16.13
2023-05-19T20:46:50.179Z,16.13
2023-05-19T20:49:52.211Z,16.10
2023-05-19T20:52:54.330Z,15.57
2023-05-19T20:55:56.284Z,15.29
2023-05-19T20:58:58.230Z,15.40
2023-05-19T21:02:00.206Z,15.14
2023-05-19T21:05:03.278Z,14.93
2023-05-19T21:08:05.488Z,14.77
2023-05-19T21:11:07.368Z,14.77
2023-05-19T21:14:09.339Z,14.91
2023-05-19T21:17:11.317Z,14.58
2023-05-19T21:20:13.419Z,14.60
2023-05-19T21:23:15.437Z,14.70
2023-05-19T21:26:17.656Z,14.35
2023-05-19T21:29:19.608Z,14.33
2023-05-19T21:32:21.938Z,14.52
2023-05-19T21:35:23.857Z,14.44
2023-05-19T21:38:26.656Z,14.22
2023-05-19T21:41:28.576Z,14.23
2023-05-19T21:44:32.025Z,14.16
2023-05-19T21:47:33.938Z,14.37
2023-05-19T21:50:37.530Z,14.23
2023-05-19T21:53:39.454Z,13.77
2023-05-19T21:56:41.327Z,13.64
2023-05-19T21:59:44.933Z,13.64
2023-05-19T22:02:49.176Z,13.57
2023-05-19T22:05:52.484Z,13.47
2023-05-19T22:08:54.669Z,13.57
2023-05-19T22:11:56.668Z,13.48
2023-05-19T22:14:58.764Z,13.59
2023-05-19T22:22:09.685Z,13.61
2023-05-19T22:25:15.067Z,13.37
2023-05-19T22:28:17.063Z,13.28
2023-05-19T22:31:19.020Z,13.48
2023-05-19T22:34:21.001Z,13.12
2023-05-19T22:37:23.238Z,13.12
2023-05-19T22:40:28.156Z,13.26
2023-05-19T22:43:30.070Z,13.32
2023-05-19T22:46:32.232Z,13.47
2023-05-19T22:49:34.237Z,13.46
2023-05-19T22:56:46.386Z,13.39
2023-05-19T22:59:48.471Z,13.16
2023-05-19T23:02:50.534Z,13.16
2023-05-19T23:05:52.467Z,13.26
2023-05-19T23:09:04.421Z,13.20
2023-05-19T23:12:07.031Z,13.12
2023-05-19T23:15:12.288Z,13.12
2023-05-19T23:18:15.152Z,12.90
2023-05-19T23:21:17.612Z,12.91
2023-05-19T23:24:19.520Z,12.84
2023-05-19T23:27:21.411Z,12.88
2023-05-19T23:30:23.246Z,12.80
2023-05-19T23:33:25.123Z,12.84
2023-05-19T23:36:27.082Z,13.06
2023-05-19T23:39:28.930Z,13.05
2023-05-19T23:42:31.017Z,13.33
2023-05-19T23:45:33.324Z,13.30
2023-05-19T23:48:36.641Z,13.34
2023-05-19T23:51:38.633Z,13.37
2023-05-19T23:54:40.785Z,13.48
2023-05-19T23:57:43.277Z,13.31
